Time;durP1;ratioP1;P1;durP2;ratioP2;P2;SDS_P1;SDS_P2;PMS_P1;PMS_P2;Temp;Humidity;BMP_temperature;BMP_pressure;BME280_temperature;BME280_humidity;BME280_pressure;Samples;Min_cycle;Max_cycle;Signal;HPM_P1;HPM_P2
2023/04/30 00:01:41;;;;;;;21.95;12.60;;;;;;;;;;5033809;28;20068;-62
2023/04/30 00:04:07;;;;;;;22.65;11.55;;;;;;;;;;5051537;28;20122;-62
2023/04/30 00:06:33;;;;;;;21.17;11.27;;;;;;;;;;5051650;28;20017;-63
2023/04/30 00:08:59;;;;;;;21.02;11.77;;;;;;;;;;5051480;28;20025;-61
2023/04/30 00:11:25;;;;;;;22.38;12.38;;;;;;;;;;5051642;28;20048;-62
2023/04/30 00:13:51;;;;;;;22.25;12.43;;;;;;;;;;5051494;28;20025;-62
2023/04/30 00:16:17;;;;;;;20.27;12.60;;;;;;;;;;5051079;28;20086;-63
2023/04/30 00:18:43;;;;;;;22.10;12.05;;;;;;;;;;5051845;28;20473;-61
2023/04/30 00:21:09;;;;;;;23.17;12.65;;;;;;;;;;5051682;28;20036;-63
2023/04/30 00:23:35;;;;;;;21.48;12.65;;;;;;;;;;5051311;28;20029;-62
2023/04/30 00:26:01;;;;;;;23.42;12.10;;;;;;;;;;5051599;28;20065;-61
2023/04/30 00:28:28;;;;;;;20.83;12.82;;;;;;;;;;5051571;28;20088;-61
2023/04/30 00:30:54;;;;;;;21.52;13.27;;;;;;;;;;5051383;28;20017;-62
2023/04/30 00:33:20;;;;;;;21.33;12.23;;;;;;;;;;5033629;28;20025;-62
2023/04/30 00:35:46;;;;;;;21.00;12.82;;;;;;;;;;5051419;28;20021;-61
2023/04/30 00:38:12;;;;;;;21.48;12.43;;;;;;;;;;5051763;28;20079;-61
2023/04/30 00:40:40;;;;;;;23.85;13.20;;;;;;;;;;5051272;28;20361;-62
2023/04/30 00:43:06;;;;;;;21.92;12.85;;;;;;;;;;5050923;28;20052;-62
2023/04/30 00:45:32;;;;;;;22.15;13.60;;;;;;;;;;5050643;28;20481;-62
2023/04/30 00:47:58;;;;;;;22.30;13.02;;;;;;;;;;5035874;28;20071;-62
2023/04/30 00:50:24;;;;;;;23.45;13.27;;;;;;;;;;5036759;28;20021;-62
2023/04/30 00:52:51;;;;;;;23.00;12.93;;;;;;;;;;5055126;28;20025;-62
2023/04/30 00:55:17;;;;;;;21.92;13.50;;;;;;;;;;5055159;28;20040;-62
2023/04/30 00:57:43;;;;;;;23.55;13.48;;;;;;;;;;5055783;28;20052;-62
2023/04/30 01:00:09;;;;;;;25.98;15.27;;;;;;;;;;5055413;28;20477;-63
2023/04/30 01:02:36;;;;;;;25.25;15.02;;;;;;;;;;5055484;28;20051;-63
2023/04/30 01:05:02;;;;;;;23.02;13.75;;;;;;;;;;5055113;28;20035;-63
2023/04/30 01:07:29;;;;;;;24.73;14.50;;;;;;;;;;5055229;28;20047;-61
2023/04/30 01:09:55;;;;;;;24.60;14.35;;;;;;;;;;5055382;28;20021;-59
2023/04/30 01:12:26;;;;;;;25.48;14.50;;;;;;;;;;5054772;28;20114;-61
2023/04/30 01:15:04;;;;;;;24.90;14.65;;;;;;;;;;5055130;28;20025;-63
2023/04/30 01:17:48;;;;;;;23.80;13.93;;;;;;;;;;5037028;28;20384;-62
2023/04/30 01:20:15;;;;;;;22.48;13.77;;;;;;;;;;5055268;28;20077;-62
2023/04/30 01:23:00;;;;;;;24.30;14.18;;;;;;;;;;5055103;28;20096;-61
2023/04/30 01:25:35;;;;;;;24.73;14.45;;;;;;;;;;5054620;28;20025;-62
2023/04/30 01:28:04;;;;;;;23.55;14.48;;;;;;;;;;5054658;28;20025;-63
2023/04/30 01:30:31;;;;;;;23.70;14.63;;;;;;;;;;5037056;28;20032;-61
2023/04/30 01:32:57;;;;;;;24.13;14.55;;;;;;;;;;5054860;28;20025;-63
2023/04/30 01:35:30;;;;;;;25.27;14.50;;;;;;;;;;5054600;28;20021;-62
2023/04/30 01:38:06;;;;;;;24.40;14.77;;;;;;;;;;5053773;28;20078;-61
2023/04/30 01:40:39;;;;;;;24.98;13.77;;;;;;;;;;5045499;28;20101;-60
2023/04/30 01:43:11;;;;;;;31.23;16.30;;;;;;;;;;5030376;28;20036;-62
2023/04/30 01:45:40;;;;;;;24.23;14.95;;;;;;;;;;5045704;28;20496;-62
2023/04/30 01:48:12;;;;;;;26.58;15.40;;;;;;;;;;5054155;28;20033;-61
2023/04/30 01:50:38;;;;;;;24.75;15.40;;;;;;;;;;5053821;28;20117;-62
2023/04/30 01:53:07;;;;;;;24.23;15.27;;;;;;;;;;5050578;28;20029;-60
2023/04/30 01:55:37;;;;;;;25.08;15.00;;;;;;;;;;5045010;28;20158;-63
2023/04/30 01:58:05;;;;;;;23.75;14.65;;;;;;;;;;5048037;28;20397;-63
2023/04/30 02:00:31;;;;;;;27.27;15.40;;;;;;;;;;5041835;28;20030;-61
2023/04/30 02:02:57;;;;;;;26.70;17.05;;;;;;;;;;5033274;28;20335;-62
2023/04/30 02:05:23;;;;;;;27.00;15.27;;;;;;;;;;5015795;28;20029;-61
2023/04/30 02:07:50;;;;;;;26.05;15.70;;;;;;;;;;5016064;28;20389;-62
2023/04/30 02:10:18;;;;;;;25.35;14.90;;;;;;;;;;5033904;28;20056;-62
2023/04/30 02:12:44;;;;;;;25.92;14.90;;;;;;;;;;5033855;28;20079;-61
2023/04/30 02:15:10;;;;;;;25.17;14.40;;;;;;;;;;5015702;28;20061;-61
2023/04/30 02:17:36;;;;;;;23.80;14.63;;;;;;;;;;5039602;28;20025;-62
2023/04/30 02:20:02;;;;;;;25.15;14.32;;;;;;;;;;5027452;28;20032;-61
2023/04/30 02:22:28;;;;;;;25.27;15.90;;;;;;;;;;5053441;28;20082;-62
2023/04/30 02:24:54;;;;;;;23.88;14.43;;;;;;;;;;5052745;28;20021;-62
2023/04/30 02:27:21;;;;;;;26.15;15.85;;;;;;;;;;5053201;28;20025;-62
2023/04/30 02:29:47;;;;;;;23.42;15.13;;;;;;;;;;5053377;28;20029;-63
2023/04/30 02:32:13;;;;;;;25.48;15.25;;;;;;;;;;5053467;28;20020;-64
2023/04/30 02:34:39;;;;;;;24.52;14.88;;;;;;;;;;5053220;28;20032;-62
2023/04/30 02:37:06;;;;;;;26.42;15.88;;;;;;;;;;5053126;28;20042;-62
2023/04/30 02:39:32;;;;;;;25.55;15.82;;;;;;;;;;5034170;28;20020;-61
2023/04/30 02:41:58;;;;;;;27.63;15.75;;;;;;;;;;5049946;28;20034;-61
2023/04/30 02:44:24;;;;;;;26.08;16.25;;;;;;;;;;5044271;28;20030;-60
2023/04/30 02:46:50;;;;;;;25.65;15.43;;;;;;;;;;5052503;28;20028;-58
2023/04/30 02:49:16;;;;;;;24.52;15.80;;;;;;;;;;5035096;28;20033;-60
2023/04/30 02:51:42;;;;;;;54.17;35.80;;;;;;;;;;5053022;28;20032;-62
2023/04/30 02:54:08;;;;;;;29.73;17.35;;;;;;;;;;5052577;28;20028;-62
2023/04/30 02:56:34;;;;;;;25.95;15.85;;;;;;;;;;5051085;28;20029;-60
2023/04/30 02:59:00;;;;;;;25.48;15.32;;;;;;;;;;5045624;28;20028;-61
2023/04/30 03:01:26;;;;;;;28.67;15.40;;;;;;;;;;5052327;28;20362;-61
2023/04/30 03:03:53;;;;;;;28.83;16.25;;;;;;;;;;5052201;28;20017;-62
2023/04/30 03:06:19;;;;;;;26.70;15.25;;;;;;;;;;5052189;28;20120;-60
2023/04/30 03:08:45;;;;;;;27.95;17.05;;;;;;;;;;5051885;28;20488;-61
2023/04/30 03:11:11;;;;;;;27.23;15.45;;;;;;;;;;5051809;28;20017;-59
2023/04/30 03:13:37;;;;;;;25.00;15.98;;;;;;;;;;5052247;28;20039;-61
2023/04/30 03:16:06;;;;;;;26.27;15.90;;;;;;;;;;5034230;28;20071;-62
2023/04/30 03:18:32;;;;;;;28.25;15.65;;;;;;;;;;5034205;28;20029;-61
2023/04/30 03:20:58;;;;;;;25.05;14.98;;;;;;;;;;5052129;28;20109;-61
2023/04/30 03:23:26;;;;;;;25.85;14.32;;;;;;;;;;5043782;28;20079;-62
2023/04/30 03:25:52;;;;;;;25.15;14.35;;;;;;;;;;5013598;28;20049;-61
2023/04/30 03:28:18;;;;;;;25.77;14.60;;;;;;;;;;5031747;28;20030;-60
2023/04/30 03:30:44;;;;;;;27.10;15.25;;;;;;;;;;5013774;28;20060;-61
2023/04/30 03:33:10;;;;;;;24.83;14.27;;;;;;;;;;5013690;28;20025;-61
2023/04/30 03:35:36;;;;;;;24.75;14.55;;;;;;;;;;5031294;28;20021;-61
2023/04/30 03:38:03;;;;;;;24.70;14.70;;;;;;;;;;5031383;28;20039;-62
2023/04/30 03:40:29;;;;;;;24.52;14.98;;;;;;;;;;5031466;28;20051;-61
2023/04/30 03:42:55;;;;;;;24.42;14.77;;;;;;;;;;5013947;28;20022;-61
2023/04/30 03:45:21;;;;;;;27.60;14.23;;;;;;;;;;5031529;28;20135;-61
2023/04/30 03:47:47;;;;;;;24.90;13.45;;;;;;;;;;5031168;28;20037;-62
2023/04/30 03:50:14;;;;;;;23.88;14.32;;;;;;;;;;5013728;28;20481;-62
2023/04/30 03:52:40;;;;;;;25.27;14.77;;;;;;;;;;5013747;28;20168;-62
2023/04/30 03:55:06;;;;;;;27.75;15.07;;;;;;;;;;5031408;28;20111;-62
2023/04/30 03:57:32;;;;;;;29.77;16.73;;;;;;;;;;5031483;28;20035;-61
2023/04/30 03:59:58;;;;;;;27.50;14.60;;;;;;;;;;5031546;28;20428;-61
2023/04/30 04:02:25;;;;;;;24.23;14.65;;;;;;;;;;5031834;28;20481;-62
2023/04/30 04:04:51;;;;;;;28.25;13.25;;;;;;;;;;5031184;28;20078;-62
2023/04/30 04:07:17;;;;;;;22.48;13.30;;;;;;;;;;5031717;28;20028;-62
2023/04/30 04:09:43;;;;;;;26.13;14.23;;;;;;;;;;5031403;28;20525;-61
2023/04/30 04:12:10;;;;;;;23.48;14.40;;;;;;;;;;5031087;28;20022;-61
2023/04/30 04:14:36;;;;;;;26.45;15.23;;;;;;;;;;5031114;28;20096;-61
2023/04/30 04:17:04;;;;;;;27.10;15.07;;;;;;;;;;5030746;28;20072;-61
2023/04/30 04:19:30;;;;;;;25.00;14.75;;;;;;;;;;5013547;28;20028;-63
2023/04/30 04:21:56;;;;;;;22.73;14.05;;;;;;;;;;5034252;28;20021;-61
2023/04/30 04:24:24;;;;;;;24.55;13.73;;;;;;;;;;5034901;28;20488;-62
2023/04/30 04:26:50;;;;;;;25.42;14.70;;;;;;;;;;5035009;28;20071;-60
2023/04/30 04:29:16;;;;;;;25.27;14.75;;;;;;;;;;5035305;28;20022;-61
2023/04/30 04:31:42;;;;;;;25.83;14.27;;;;;;;;;;5035586;28;20114;-62
2023/04/30 04:34:08;;;;;;;23.23;13.65;;;;;;;;;;5016660;28;20022;-61
2023/04/30 04:36:34;;;;;;;21.85;13.18;;;;;;;;;;5017023;28;20021;-61
2023/04/30 04:39:01;;;;;;;26.45;14.85;;;;;;;;;;5034777;28;20462;-61
2023/04/30 04:41:35;;;;;;;24.27;13.73;;;;;;;;;;5017124;28;20112;-61
2023/04/30 04:44:04;;;;;;;25.48;13.52;;;;;;;;;;5016736;28;20030;-61
2023/04/30 04:46:31;;;;;;;21.90;13.10;;;;;;;;;;5017229;28;20030;-62
2023/04/30 04:48:57;;;;;;;22.52;12.60;;;;;;;;;;5035201;28;20461;-61
2023/04/30 04:51:24;;;;;;;24.08;12.43;;;;;;;;;;5035232;28;20083;-61
2023/04/30 04:53:50;;;;;;;24.25;13.50;;;;;;;;;;5034865;28;20026;-61
2023/04/30 04:56:16;;;;;;;26.60;11.90;;;;;;;;;;5034588;28;20392;-60
2023/04/30 04:58:42;;;;;;;21.17;13.30;;;;;;;;;;5034701;28;20044;-62
2023/04/30 05:01:09;;;;;;;20.20;12.13;;;;;;;;;;5034743;28;20034;-61
2023/04/30 05:03:38;;;;;;;21.08;11.15;;;;;;;;;;5034684;28;20034;-62
2023/04/30 05:06:04;;;;;;;24.48;12.88;;;;;;;;;;5034269;28;20028;-61
2023/04/30 05:08:30;;;;;;;24.17;11.45;;;;;;;;;;5016379;28;20040;-61
2023/04/30 05:10:56;;;;;;;21.30;11.27;;;;;;;;;;5016611;28;20025;-61
2023/04/30 05:13:22;;;;;;;22.92;11.30;;;;;;;;;;5016563;28;20094;-61
2023/04/30 05:15:52;;;;;;;31.17;16.38;;;;;;;;;;5033754;28;20065;-62
2023/04/30 05:18:18;;;;;;;22.80;13.50;;;;;;;;;;5016488;28;20026;-61
2023/04/30 05:20:44;;;;;;;22.80;11.07;;;;;;;;;;5034229;28;20439;-62
2023/04/30 05:23:11;;;;;;;20.85;10.30;;;;;;;;;;5016102;28;20120;-59
2023/04/30 05:25:37;;;;;;;22.65;11.30;;;;;;;;;;5033320;28;20024;-61
2023/04/30 05:28:03;;;;;;;21.30;11.40;;;;;;;;;;5025380;22;20054;-55
2023/04/30 05:30:30;;;;;;;22.98;11.55;;;;;;;;;;4995045;28;20030;-52
2023/04/30 05:32:56;;;;;;;19.77;10.05;;;;;;;;;;4994555;28;20397;-56
2023/04/30 05:35:23;;;;;;;24.40;11.77;;;;;;;;;;4979607;28;20034;-55
2023/04/30 05:37:49;;;;;;;22.35;10.38;;;;;;;;;;4980142;28;20372;-57
2023/04/30 05:40:15;;;;;;;20.98;9.93;;;;;;;;;;4996733;28;20058;-57
2023/04/30 05:42:42;;;;;;;21.25;10.20;;;;;;;;;;4978349;28;20132;-53
2023/04/30 05:45:09;;;;;;;21.40;11.18;;;;;;;;;;4995363;28;20515;-53
2023/04/30 05:47:35;;;;;;;19.52;10.30;;;;;;;;;;4995159;28;20022;-53
2023/04/30 05:50:01;;;;;;;19.55;9.82;;;;;;;;;;4994920;28;20031;-56
2023/04/30 05:52:26;;;;;;;21.83;10.00;;;;;;;;;;4977251;28;20574;-52
2023/04/30 05:54:52;;;;;;;22.35;10.20;;;;;;;;;;4976953;28;20030;-56
2023/04/30 05:57:19;;;;;;;23.30;10.75;;;;;;;;;;4994452;28;20026;-57
2023/04/30 05:59:45;;;;;;;21.65;9.55;;;;;;;;;;4994556;28;20102;-55
2023/04/30 06:02:11;;;;;;;20.88;10.68;;;;;;;;;;4994407;28;20046;-57
2023/04/30 06:04:37;;;;;;;21.35;9.98;;;;;;;;;;4994043;28;20022;-57
2023/04/30 06:07:03;;;;;;;26.95;11.52;;;;;;;;;;4976797;28;20027;-55
2023/04/30 06:09:29;;;;;;;20.58;9.80;;;;;;;;;;4994435;28;20525;-59
2023/04/30 06:11:55;;;;;;;21.05;9.50;;;;;;;;;;4994317;28;20053;-56
2023/04/30 06:14:24;;;;;;;22.30;10.38;;;;;;;;;;4993838;28;20042;-58
2023/04/30 06:16:50;;;;;;;23.17;11.10;;;;;;;;;;4976607;28;20073;-55
2023/04/30 06:19:16;;;;;;;21.15;9.20;;;;;;;;;;4994164;28;20022;-55
2023/04/30 06:21:42;;;;;;;21.98;9.95;;;;;;;;;;4994154;28;20110;-55
2023/04/30 06:24:08;;;;;;;21.33;9.23;;;;;;;;;;4976202;28;20030;-56
2023/04/30 06:26:34;;;;;;;21.75;9.50;;;;;;;;;;4993867;28;20418;-57
2023/04/30 06:29:00;;;;;;;20.05;8.90;;;;;;;;;;4992084;28;20243;-58
2023/04/30 06:31:26;;;;;;;20.25;9.40;;;;;;;;;;4993318;28;20054;-55
2023/04/30 06:33:52;;;;;;;20.73;8.90;;;;;;;;;;4988887;28;20030;-56
2023/04/30 06:36:19;;;;;;;18.92;9.65;;;;;;;;;;4993532;28;20372;-57
2023/04/30 06:38:46;;;;;;;36.70;20.58;;;;;;;;;;4976028;28;20548;-56
2023/04/30 06:41:12;;;;;;;23.33;12.02;;;;;;;;;;4976222;28;20026;-58
2023/04/30 06:43:38;;;;;;;20.45;10.20;;;;;;;;;;4993238;28;20026;-54
2023/04/30 06:46:05;;;;;;;20.95;10.43;;;;;;;;;;4992610;28;20034;-59
2023/04/30 06:48:31;;;;;;;19.17;9.68;;;;;;;;;;4993563;28;20026;-58
2023/04/30 06:50:57;;;;;;;19.88;10.23;;;;;;;;;;4975970;28;20037;-59
2023/04/30 06:53:24;;;;;;;22.15;10.50;;;;;;;;;;4975789;28;20109;-55
2023/04/30 06:55:50;;;;;;;24.42;10.82;;;;;;;;;;4993255;28;20098;-56
2023/04/30 06:58:17;;;;;;;20.33;9.98;;;;;;;;;;4993101;28;20022;-54
2023/04/30 07:00:43;;;;;;;24.90;11.45;;;;;;;;;;4993288;28;20049;-54
2023/04/30 07:03:09;;;;;;;23.90;10.32;;;;;;;;;;4992987;28;20088;-55
2023/04/30 07:05:35;;;;;;;23.90;10.65;;;;;;;;;;4992947;28;20101;-54
2023/04/30 07:08:02;;;;;;;19.80;10.48;;;;;;;;;;4975448;28;20026;-55
2023/04/30 07:10:28;;;;;;;20.52;10.02;;;;;;;;;;4975656;28;20049;-55
2023/04/30 07:12:55;;;;;;;17.60;10.27;;;;;;;;;;4993132;28;20386;-52
2023/04/30 07:15:21;;;;;;;20.73;10.30;;;;;;;;;;4975638;28;20030;-53
2023/04/30 07:17:47;;;;;;;21.67;10.93;;;;;;;;;;4993210;28;20053;-57
2023/04/30 07:20:13;;;;;;;24.55;9.70;;;;;;;;;;4992850;28;20034;-52
2023/04/30 07:22:39;;;;;;;31.10;11.77;;;;;;;;;;4993268;28;20022;-63
2023/04/30 07:25:06;;;;;;;24.58;11.18;;;;;;;;;;4992715;28;20087;-60
2023/04/30 07:27:32;;;;;;;22.40;10.93;;;;;;;;;;4975213;28;20132;-61
2023/04/30 07:29:58;;;;;;;20.75;9.80;;;;;;;;;;4992587;28;20110;-60
2023/04/30 07:32:25;;;;;;;22.40;10.25;;;;;;;;;;4992517;28;20026;-60
2023/04/30 07:34:52;;;;;;;21.60;10.53;;;;;;;;;;4992277;28;20030;-60
2023/04/30 07:37:18;;;;;;;19.40;9.40;;;;;;;;;;4974924;28;20646;-61
2023/04/30 07:39:44;;;;;;;19.02;9.55;;;;;;;;;;4992561;28;20034;-60
2023/04/30 07:42:10;;;;;;;20.67;9.60;;;;;;;;;;4975093;28;20037;-59
2023/04/30 07:44:36;;;;;;;20.45;9.88;;;;;;;;;;4992121;28;20062;-61
2023/04/30 07:47:02;;;;;;;20.25;9.57;;;;;;;;;;4992250;28;20474;-61
2023/04/30 07:49:28;;;;;;;19.23;9.13;;;;;;;;;;4974686;28;20522;-63
2023/04/30 07:51:55;;;;;;;22.45;9.85;;;;;;;;;;4992099;28;20101;-53
2023/04/30 07:54:21;;;;;;;18.08;9.45;;;;;;;;;;4976474;28;20121;-54
2023/04/30 07:56:47;;;;;;;18.80;9.25;;;;;;;;;;4990939;28;20534;-56
2023/04/30 07:59:13;;;;;;;19.52;9.18;;;;;;;;;;4991982;28;20029;-57
2023/04/30 08:01:40;;;;;;;20.85;8.55;;;;;;;;;;4992059;28;20036;-57
2023/04/30 08:04:34;;;;;;;19.67;9.25;;;;;;;;;;4992236;28;20046;-49
2023/04/30 08:07:03;;;;;;;18.05;8.50;;;;;;;;;;4974733;28;20403;-52
2023/04/30 08:09:41;;;;;;;19.58;9.45;;;;;;;;;;4990945;28;20030;-54
2023/04/30 08:12:08;;;;;;;19.15;9.43;;;;;;;;;;4984492;28;20041;-54
2023/04/30 08:14:34;;;;;;;22.15;8.75;;;;;;;;;;4989627;28;20570;-53
2023/04/30 08:17:01;;;;;;;19.42;8.88;;;;;;;;;;4984261;28;20041;-56
2023/04/30 08:19:27;;;;;;;21.60;8.40;;;;;;;;;;4992268;28;20036;-52
2023/04/30 08:21:53;;;;;;;17.58;8.57;;;;;;;;;;4992405;28;20023;-56
2023/04/30 08:24:20;;;;;;;19.02;9.30;;;;;;;;;;4991465;28;20158;-55
2023/04/30 08:26:46;;;;;;;22.45;8.88;;;;;;;;;;4991292;28;20023;-57
2023/04/30 08:29:11;;;;;;;20.48;10.52;;;;;;;;;;4991277;28;20022;-53
2023/04/30 08:31:37;;;;;;;20.40;9.75;;;;;;;;;;4983661;28;20434;-57
2023/04/30 08:34:03;;;;;;;22.85;10.38;;;;;;;;;;4973719;28;20054;-57
2023/04/30 08:36:29;;;;;;;20.88;10.05;;;;;;;;;;4974131;28;20544;-54
2023/04/30 08:38:56;;;;;;;20.00;9.52;;;;;;;;;;4991961;28;20131;-57
2023/04/30 08:41:25;;;;;;;20.33;9.35;;;;;;;;;;4991444;28;20023;-53
2023/04/30 08:43:50;;;;;;;;;;;;;;;;;;4974838;28;20445;-57
2023/04/30 08:46:17;;;;;;;18.83;8.90;;;;;;;;;;4991650;28;19910;-57
2023/04/30 08:48:43;;;;;;;18.77;9.65;;;;;;;;;;4991732;28;20022;-58
2023/04/30 08:51:09;;;;;;;22.10;9.60;;;;;;;;;;4974326;28;20022;-57
2023/04/30 08:53:39;;;;;;;17.63;9.00;;;;;;;;;;4973948;28;20034;-53
2023/04/30 08:56:06;;;;;;;21.10;10.60;;;;;;;;;;4991431;28;20026;-54
2023/04/30 08:58:32;;;;;;;20.65;10.30;;;;;;;;;;4974309;28;20113;-54
2023/04/30 09:00:58;;;;;;;17.05;9.10;;;;;;;;;;4991516;28;20433;-59
2023/04/30 09:03:25;;;;;;;18.02;9.57;;;;;;;;;;4991633;28;20449;-54
2023/04/30 09:05:51;;;;;;;17.45;8.93;;;;;;;;;;4991087;28;20394;-53
2023/04/30 09:08:18;;;;;;;19.13;8.65;;;;;;;;;;4992582;28;20565;-54
2023/04/30 09:10:44;;;;;;;18.08;9.48;;;;;;;;;;4995301;28;20029;-56
2023/04/30 09:13:13;;;;;;;18.42;9.23;;;;;;;;;;4995074;28;20437;-58
2023/04/30 09:15:40;;;;;;;20.92;8.57;;;;;;;;;;4994681;28;20026;-51
2023/04/30 09:18:16;;;;;;;19.05;8.82;;;;;;;;;;4995033;28;20034;-57
2023/04/30 09:21:00;;;;;;;17.90;9.15;;;;;;;;;;4994910;28;20029;-57
2023/04/30 09:23:26;;;;;;;20.60;10.07;;;;;;;;;;4995037;28;20026;-56
2023/04/30 09:25:53;;;;;;;16.90;8.73;;;;;;;;;;4994273;28;20050;-55
2023/04/30 09:28:23;;;;;;;17.40;9.25;;;;;;;;;;4994722;28;20034;-54
2023/04/30 09:30:49;;;;;;;19.42;9.93;;;;;;;;;;4994765;28;20097;-56
2023/04/30 09:33:16;;;;;;;24.85;10.00;;;;;;;;;;4994823;28;20019;-58
2023/04/30 09:35:42;;;;;;;18.15;8.93;;;;;;;;;;4994601;28;20114;-58
2023/04/30 09:38:08;;;;;;;19.30;9.80;;;;;;;;;;4994641;28;20054;-57
2023/04/30 09:40:41;;;;;;;19.85;9.77;;;;;;;;;;4994655;28;20038;-56
2023/04/30 09:43:07;;;;;;;20.27;10.23;;;;;;;;;;4994259;28;20030;-55
2023/04/30 09:45:40;;;;;;;19.55;11.05;;;;;;;;;;4994094;28;20047;-52
2023/04/30 09:48:09;;;;;;;18.45;9.35;;;;;;;;;;4994395;28;20022;-54
2023/04/30 09:50:39;;;;;;;16.13;8.55;;;;;;;;;;4994457;28;20018;-55
2023/04/30 09:53:08;;;;;;;20.88;8.98;;;;;;;;;;4994171;28;20026;-55
2023/04/30 09:55:35;;;;;;;18.98;9.73;;;;;;;;;;4994283;28;20149;-56
2023/04/30 09:58:06;;;;;;;17.70;9.60;;;;;;;;;;4994243;28;20507;-56
2023/04/30 10:00:33;;;;;;;16.63;9.05;;;;;;;;;;4994109;28;20386;-55
2023/04/30 10:03:01;;;;;;;19.10;11.73;;;;;;;;;;4994328;28;20030;-54
2023/04/30 10:05:27;;;;;;;19.85;9.75;;;;;;;;;;4976213;28;20034;-52
2023/04/30 10:07:54;;;;;;;18.88;9.90;;;;;;;;;;4993861;28;20029;-54
2023/04/30 10:10:20;;;;;;;21.00;9.60;;;;;;;;;;4994266;28;20367;-56
2023/04/30 10:12:55;;;;;;;18.00;9.35;;;;;;;;;;4994138;28;20105;-57
2023/04/30 10:15:24;;;;;;;17.77;8.70;;;;;;;;;;4976017;28;20148;-54
2023/04/30 10:17:54;;;;;;;18.50;9.50;;;;;;;;;;4993932;28;20483;-54
2023/04/30 10:20:21;;;;;;;18.45;9.05;;;;;;;;;;4976231;28;20023;-55
2023/04/30 10:22:47;;;;;;;19.58;9.75;;;;;;;;;;4976461;28;20033;-56
2023/04/30 10:25:15;;;;;;;18.65;9.13;;;;;;;;;;4975882;28;20022;-58
2023/04/30 10:27:41;;;;;;;18.75;9.20;;;;;;;;;;4993533;28;20031;-54
2023/04/30 10:30:09;;;;;;;17.02;9.38;;;;;;;;;;4993696;28;20509;-53
2023/04/30 10:32:42;;;;;;;17.33;9.38;;;;;;;;;;4993520;28;20491;-53
2023/04/30 10:35:12;;;;;;;20.80;9.00;;;;;;;;;;4993362;28;20049;-58
2023/04/30 10:37:45;;;;;;;19.50;8.68;;;;;;;;;;4993329;28;20041;-57
2023/04/30 10:40:13;;;;;;;16.20;9.50;;;;;;;;;;4993498;28;20082;-55
2023/04/30 10:42:44;;;;;;;18.05;9.63;;;;;;;;;;4992943;28;20027;-58
2023/04/30 10:45:11;;;;;;;20.90;9.65;;;;;;;;;;4993308;28;20034;-54
2023/04/30 10:47:38;;;;;;;17.77;9.27;;;;;;;;;;4993909;28;20052;-54
2023/04/30 10:50:04;;;;;;;17.05;9.32;;;;;;;;;;4993058;28;20386;-54
2023/04/30 10:52:31;;;;;;;17.88;9.48;;;;;;;;;;4992842;28;20030;-54
2023/04/30 10:54:57;;;;;;;18.95;9.50;;;;;;;;;;4975533;28;20141;-57
2023/04/30 10:57:23;;;;;;;17.60;9.20;;;;;;;;;;4992917;28;20030;-59
2023/04/30 10:59:49;;;;;;;17.38;9.35;;;;;;;;;;4993123;28;20533;-56
2023/04/30 11:02:16;;;;;;;19.10;9.55;;;;;;;;;;4993148;28;20030;-54
2023/04/30 11:05:01;;;;;;;19.63;9.38;;;;;;;;;;4992608;28;20023;-54
2023/04/30 11:07:27;;;;;;;18.45;8.70;;;;;;;;;;4992888;28;20054;-57
2023/04/30 11:09:56;;;;;;;18.65;8.68;;;;;;;;;;4992870;28;20023;-57
2023/04/30 11:12:27;;;;;;;;;;;;;;;;;;4993180;28;20048;-55
2023/04/30 11:14:53;;;;;;;16.52;8.68;;;;;;;;;;4992614;28;20000;-56
2023/04/30 11:17:23;;;;;;;16.42;9.18;;;;;;;;;;4975653;28;20117;-57
2023/04/30 11:19:50;;;;;;;16.83;9.57;;;;;;;;;;4976066;28;20030;-56
2023/04/30 11:22:22;;;;;;;16.67;9.48;;;;;;;;;;4993967;28;20065;-60
2023/04/30 11:24:51;;;;;;;17.83;9.30;;;;;;;;;;4976008;28;20034;-57
2023/04/30 11:27:28;;;;;;;17.92;9.45;;;;;;;;;;5040711;22;20037;-60
2023/04/30 11:29:54;;;;;;;16.10;9.00;;;;;;;;;;5030660;28;20105;-59
2023/04/30 11:32:21;;;;;;;19.33;10.07;;;;;;;;;;5030469;28;20565;-60
2023/04/30 11:34:48;;;;;;;16.05;9.18;;;;;;;;;;5028363;28;20024;-59
2023/04/30 11:37:44;;;;;;;16.48;9.70;;;;;;;;;;5043772;28;20040;-59
2023/04/30 11:40:11;;;;;;;16.15;9.68;;;;;;;;;;4670570;28;10000420;-58
2023/04/30 11:42:40;;;;;;;17.23;10.80;;;;;;;;;;5020663;28;20140;-60
2023/04/30 11:45:07;;;;;;;15.68;9.80;;;;;;;;;;5033104;28;20113;-61
2023/04/30 11:47:39;;;;;;;16.40;10.43;;;;;;;;;;5027860;28;20025;-63
2023/04/30 11:50:05;;;;;;;15.05;9.82;;;;;;;;;;5031394;28;20028;-62
2023/04/30 11:52:31;;;;;;;16.90;10.68;;;;;;;;;;5047418;28;20102;-61
2023/04/30 11:54:59;;;;;;;20.58;10.60;;;;;;;;;;5047469;28;20040;-61
2023/04/30 11:57:25;;;;;;;16.37;10.80;;;;;;;;;;5046145;28;20037;-60
2023/04/30 11:59:51;;;;;;;18.70;10.65;;;;;;;;;;5007930;28;20030;-57
2023/04/30 12:02:17;;;;;;;18.67;11.07;;;;;;;;;;5008206;28;20048;-61
2023/04/30 12:04:43;;;;;;;15.63;10.75;;;;;;;;;;5006497;28;20402;-60
2023/04/30 12:07:09;;;;;;;17.10;10.57;;;;;;;;;;5008716;28;20091;-60
2023/04/30 12:09:54;;;;;;;16.40;10.90;;;;;;;;;;5008719;28;20026;-58
2023/04/30 12:12:30;;;;;;;16.85;10.52;;;;;;;;;;5008961;28;20113;-60
2023/04/30 12:14:56;;;;;;;18.17;11.88;;;;;;;;;;5007111;28;20029;-61
2023/04/30 12:17:32;;;;;;;17.27;11.10;;;;;;;;;;5008578;28;20101;-60
2023/04/30 12:19:59;;;;;;;19.02;11.35;;;;;;;;;;5007092;28;20056;-59
2023/04/30 12:22:25;;;;;;;15.55;10.70;;;;;;;;;;5007599;28;20088;-61
2023/04/30 12:24:51;;;;;;;15.75;11.07;;;;;;;;;;5007361;28;20375;-61
2023/04/30 12:27:17;;;;;;;16.20;11.00;;;;;;;;;;5007494;28;20037;-59
2023/04/30 12:29:47;;;;;;;17.63;11.80;;;;;;;;;;5006348;28;20177;-61
2023/04/30 12:32:15;;;;;;;18.50;11.00;;;;;;;;;;5022336;28;20071;-60
2023/04/30 12:34:41;;;;;;;15.93;11.03;;;;;;;;;;5027122;28;20109;-60
2023/04/30 12:37:07;;;;;;;18.75;11.23;;;;;;;;;;5027208;28;20029;-60
2023/04/30 12:39:33;;;;;;;19.83;12.95;;;;;;;;;;5026087;28;20393;-59
2023/04/30 12:42:00;;;;;;;20.77;12.32;;;;;;;;;;5020011;28;20603;-60
2023/04/30 12:44:26;;;;;;;16.80;11.50;;;;;;;;;;5030798;28;20034;-60
2023/04/30 12:46:59;;;;;;;17.75;11.65;;;;;;;;;;5031322;28;20400;-58
2023/04/30 12:49:29;;;;;;;17.08;11.23;;;;;;;;;;5031328;28;20585;-59
2023/04/30 12:52:00;;;;;;;16.27;11.57;;;;;;;;;;5029784;28;20396;-60
2023/04/30 12:54:29;;;;;;;16.48;11.60;;;;;;;;;;5031117;28;20501;-61
2023/04/30 12:57:02;;;;;;;16.40;11.93;;;;;;;;;;5031135;28;20433;-60
2023/04/30 12:59:28;;;;;;;16.00;11.63;;;;;;;;;;5031556;28;20120;-59
2023/04/30 13:01:55;;;;;;;18.00;12.13;;;;;;;;;;5032174;28;20029;-59
2023/04/30 13:04:21;;;;;;;16.17;11.60;;;;;;;;;;5032045;28;20048;-57
2023/04/30 13:06:48;;;;;;;15.90;11.73;;;;;;;;;;4684877;28;10000294;-60
2023/04/30 13:09:14;;;;;;;17.60;11.77;;;;;;;;;;5030559;28;20468;-59
2023/04/30 13:11:40;;;;;;;16.95;11.10;;;;;;;;;;5030513;28;20386;-62
2023/04/30 13:14:09;;;;;;;18.58;11.30;;;;;;;;;;5030399;28;20037;-58
2023/04/30 13:16:35;;;;;;;16.45;11.00;;;;;;;;;;5029242;28;20419;-62
2023/04/30 13:19:01;;;;;;;16.15;10.70;;;;;;;;;;5030340;28;20034;-60
2023/04/30 13:21:27;;;;;;;17.40;11.23;;;;;;;;;;5030485;28;20025;-60
2023/04/30 13:23:53;;;;;;;15.93;11.20;;;;;;;;;;5030172;28;20032;-61
2023/04/30 13:26:20;;;;;;;16.23;10.98;;;;;;;;;;5030294;28;20029;-60
2023/04/30 13:28:46;;;;;;;17.20;11.48;;;;;;;;;;5030294;28;20032;-60
2023/04/30 13:31:12;;;;;;;17.50;11.20;;;;;;;;;;5030058;28;20466;-59
2023/04/30 13:33:38;;;;;;;16.75;11.18;;;;;;;;;;5030218;28;20043;-60
2023/04/30 13:36:04;;;;;;;16.02;11.20;;;;;;;;;;5029938;28;20064;-58
2023/04/30 13:38:30;;;;;;;16.20;11.10;;;;;;;;;;5037260;28;20120;-61
2023/04/30 13:40:56;;;;;;;17.35;11.52;;;;;;;;;;5048315;28;20090;-61
2023/04/30 13:43:22;;;;;;;19.27;11.82;;;;;;;;;;5049742;28;20033;-61
2023/04/30 13:45:48;;;;;;;16.92;11.18;;;;;;;;;;5048811;28;20401;-60
2023/04/30 13:48:14;;;;;;;16.55;11.63;;;;;;;;;;5047967;28;20018;-60
2023/04/30 13:50:40;;;;;;;16.83;11.15;;;;;;;;;;5032886;28;20025;-61
2023/04/30 13:53:06;;;;;;;15.82;11.25;;;;;;;;;;5028051;28;20121;-60
2023/04/30 13:55:32;;;;;;;16.27;11.68;;;;;;;;;;5029681;28;20029;-59
2023/04/30 13:57:58;;;;;;;15.90;10.82;;;;;;;;;;5029603;28;20040;-61
2023/04/30 14:00:25;;;;;;;16.25;11.57;;;;;;;;;;5030117;28;20033;-58
2023/04/30 14:02:51;;;;;;;16.50;11.00;;;;;;;;;;5028658;28;20072;-58
2023/04/30 14:05:17;;;;;;;15.52;11.50;;;;;;;;;;5030753;28;20025;-59
2023/04/30 14:07:43;;;;;;;17.65;11.38;;;;;;;;;;5031933;28;20018;-60
2023/04/30 14:10:09;;;;;;;16.50;10.80;;;;;;;;;;5032737;28;20068;-60
2023/04/30 14:12:35;;;;;;;16.98;10.90;;;;;;;;;;5030827;28;20021;-59
2023/04/30 14:15:02;;;;;;;17.05;11.15;;;;;;;;;;5031852;28;20056;-60
2023/04/30 14:17:28;;;;;;;15.48;11.25;;;;;;;;;;5029389;28;20066;-58
2023/04/30 14:19:55;;;;;;;17.90;12.23;;;;;;;;;;5032254;28;20071;-56
2023/04/30 14:22:23;;;;;;;18.00;11.27;;;;;;;;;;5030812;28;20021;-58